sensor_id;sensor_type;location;lat;lon;timestamp;temperature;humidity
78028;DHT22;67235;45.638;11.714;2023-02-02T00:01:18;1.20;69.30
78028;DHT22;67235;45.638;11.714;2023-02-02T00:03:44;1.10;68.60
78028;DHT22;67235;45.638;11.714;2023-02-02T00:06:10;1.10;68.60
78028;DHT22;67235;45.638;11.714;2023-02-02T00:08:36;1.20;68.70
78028;DHT22;67235;45.638;11.714;2023-02-02T00:11:04;0.90;68.80
78028;DHT22;67235;45.638;11.714;2023-02-02T00:13:31;0.70;68.60
78028;DHT22;67235;45.638;11.714;2023-02-02T00:15:57;0.90;69.40
78028;DHT22;67235;45.638;11.714;2023-02-02T00:18:22;0.70;69.50
78028;DHT22;67235;45.638;11.714;2023-02-02T00:20:48;0.90;69.40
78028;DHT22;67235;45.638;11.714;2023-02-02T00:23:16;0.90;69.60
78028;DHT22;67235;45.638;11.714;2023-02-02T00:25:42;1.00;69.20
78028;DHT22;67235;45.638;11.714;2023-02-02T00:28:08;1.00;69.60
78028;DHT22;67235;45.638;11.714;2023-02-02T00:30:34;1.20;69.30
78028;DHT22;67235;45.638;11.714;2023-02-02T00:33:00;1.20;69.30
78028;DHT22;67235;45.638;11.714;2023-02-02T00:35:26;1.20;69.10
78028;DHT22;67235;45.638;11.714;2023-02-02T00:37:52;1.40;69.70
78028;DHT22;67235;45.638;11.714;2023-02-02T00:40:18;1.20;69.70
78028;DHT22;67235;45.638;11.714;2023-02-02T00:42:43;1.10;69.40
78028;DHT22;67235;45.638;11.714;2023-02-02T00:45:13;1.10;69.70
78028;DHT22;67235;45.638;11.714;2023-02-02T00:47:47;1.00;70.20
78028;DHT22;67235;45.638;11.714;2023-02-02T00:50:19;0.80;69.50
78028;DHT22;67235;45.638;11.714;2023-02-02T00:52:47;0.80;69.60
78028;DHT22;67235;45.638;11.714;2023-02-02T00:55:13;0.80;69.20
78028;DHT22;67235;45.638;11.714;2023-02-02T00:57:39;0.90;69.00
78028;DHT22;67235;45.638;11.714;2023-02-02T01:00:07;1.00;68.70
78028;DHT22;67235;45.638;11.714;2023-02-02T01:02:34;1.00;68.90
78028;DHT22;67235;45.638;11.714;2023-02-02T01:05:01;0.90;68.40
78028;DHT22;67235;45.638;11.714;2023-02-02T01:07:27;0.90;68.20
78028;DHT22;67235;45.638;11.714;2023-02-02T01:09:53;0.90;69.40
78028;DHT22;67235;45.638;11.714;2023-02-02T01:12:19;0.90;69.20
78028;DHT22;67235;45.638;11.714;2023-02-02T01:14:44;1.00;69.10
78028;DHT22;67235;45.638;11.714;2023-02-02T01:17:10;1.00;68.80
78028;DHT22;67235;45.638;11.714;2023-02-02T01:19:36;0.80;69.00
78028;DHT22;67235;45.638;11.714;2023-02-02T01:22:02;0.70;69.60
78028;DHT22;67235;45.638;11.714;2023-02-02T01:24:28;0.90;70.00
78028;DHT22;67235;45.638;11.714;2023-02-02T01:26:55;0.90;70.40
78028;DHT22;67235;45.638;11.714;2023-02-02T01:29:21;1.00;70.10
78028;DHT22;67235;45.638;11.714;2023-02-02T01:31:47;0.70;70.10
78028;DHT22;67235;45.638;11.714;2023-02-02T01:34:13;1.10;70.10
78028;DHT22;67235;45.638;11.714;2023-02-02T01:36:38;1.10;69.70
78028;DHT22;67235;45.638;11.714;2023-02-02T01:39:04;1.00;68.80
78028;DHT22;67235;45.638;11.714;2023-02-02T01:41:30;1.00;68.60
78028;DHT22;67235;45.638;11.714;2023-02-02T01:43:59;0.80;67.80
78028;DHT22;67235;45.638;11.714;2023-02-02T01:46:28;0.80;69.50
78028;DHT22;67235;45.638;11.714;2023-02-02T01:51:28;0.60;69.60
78028;DHT22;67235;45.638;11.714;2023-02-02T01:53:57;0.50;69.00
78028;DHT22;67235;45.638;11.714;2023-02-02T01:56:28;0.70;69.30
78028;DHT22;67235;45.638;11.714;2023-02-02T01:58:55;0.60;68.80
78028;DHT22;67235;45.638;11.714;2023-02-02T02:01:22;0.70;69.20
78028;DHT22;67235;45.638;11.714;2023-02-02T02:03:48;0.60;68.30
78028;DHT22;67235;45.638;11.714;2023-02-02T02:06:16;0.60;68.50
78028;DHT22;67235;45.638;11.714;2023-02-02T02:08:56;0.80;68.60
78028;DHT22;67235;45.638;11.714;2023-02-02T02:11:23;0.80;69.10
78028;DHT22;67235;45.638;11.714;2023-02-02T02:13:50;0.60;68.90
78028;DHT22;67235;45.638;11.714;2023-02-02T02:37:21;0.70;69.90
78028;DHT22;67235;45.638;11.714;2023-02-02T02:42:21;0.50;69.00
78028;DHT22;67235;45.638;11.714;2023-02-02T02:44:48;0.70;69.40
78028;DHT22;67235;45.638;11.714;2023-02-02T02:47:16;0.60;68.80
78028;DHT22;67235;45.638;11.714;2023-02-02T02:49:44;0.60;68.70
78028;DHT22;67235;45.638;11.714;2023-02-02T02:52:10;0.40;69.00
78028;DHT22;67235;45.638;11.714;2023-02-02T02:54:52;0.40;68.50
78028;DHT22;67235;45.638;11.714;2023-02-02T03:00:41;0.20;68.80
78028;DHT22;67235;45.638;11.714;2023-02-02T03:03:18;0.20;69.00
78028;DHT22;67235;45.638;11.714;2023-02-02T03:08:40;0.20;69.80
78028;DHT22;67235;45.638;11.714;2023-02-02T03:11:10;0.00;70.20
78028;DHT22;67235;45.638;11.714;2023-02-02T03:13:37;0.00;70.60
78028;DHT22;67235;45.638;11.714;2023-02-02T03:16:05;0.10;70.10
78028;DHT22;67235;45.638;11.714;2023-02-02T03:18:31;0.10;69.80
78028;DHT22;67235;45.638;11.714;2023-02-02T03:20:58;0.00;70.00
78028;DHT22;67235;45.638;11.714;2023-02-02T03:23:24;0.20;69.90
78028;DHT22;67235;45.638;11.714;2023-02-02T03:25:50;0.10;70.00
78028;DHT22;67235;45.638;11.714;2023-02-02T03:28:17;0.30;69.50
78028;DHT22;67235;45.638;11.714;2023-02-02T03:30:44;0.20;68.90
78028;DHT22;67235;45.638;11.714;2023-02-02T03:33:12;0.10;69.40
78028;DHT22;67235;45.638;11.714;2023-02-02T03:35:38;0.30;69.90
78028;DHT22;67235;45.638;11.714;2023-02-02T03:38:04;0.20;70.60
78028;DHT22;67235;45.638;11.714;2023-02-02T03:40:30;0.30;69.80
78028;DHT22;67235;45.638;11.714;2023-02-02T03:42:56;0.30;68.80
78028;DHT22;67235;45.638;11.714;2023-02-02T03:45:22;0.30;69.00
78028;DHT22;67235;45.638;11.714;2023-02-02T03:47:48;0.10;69.40
78028;DHT22;67235;45.638;11.714;2023-02-02T03:50:14;0.10;69.40
78028;DHT22;67235;45.638;11.714;2023-02-02T03:52:40;0.30;69.30
78028;DHT22;67235;45.638;11.714;2023-02-02T03:55:06;0.20;68.90
78028;DHT22;67235;45.638;11.714;2023-02-02T03:57:32;0.00;69.30
78028;DHT22;67235;45.638;11.714;2023-02-02T03:59:58;0.30;69.20
78028;DHT22;67235;45.638;11.714;2023-02-02T04:02:24;0.00;69.20
78028;DHT22;67235;45.638;11.714;2023-02-02T04:04:49;0.00;69.50
78028;DHT22;67235;45.638;11.714;2023-02-02T04:07:15;0.20;69.30
78028;DHT22;67235;45.638;11.714;2023-02-02T04:09:42;0.30;69.20
78028;DHT22;67235;45.638;11.714;2023-02-02T04:12:08;0.10;68.70
78028;DHT22;67235;45.638;11.714;2023-02-02T04:14:34;0.10;68.50
78028;DHT22;67235;45.638;11.714;2023-02-02T04:17:00;0.00;67.70
78028;DHT22;67235;45.638;11.714;2023-02-02T04:19:26;0.00;68.80
78028;DHT22;67235;45.638;11.714;2023-02-02T04:21:52;0.10;69.30
78028;DHT22;67235;45.638;11.714;2023-02-02T04:24:18;0.00;68.40
78028;DHT22;67235;45.638;11.714;2023-02-02T04:26:44;-3276.60;68.60
78028;DHT22;67235;45.638;11.714;2023-02-02T04:29:10;0.00;68.20
78028;DHT22;67235;45.638;11.714;2023-02-02T04:31:37;0.00;69.20
78028;DHT22;67235;45.638;11.714;2023-02-02T04:34:04;0.00;68.90
78028;DHT22;67235;45.638;11.714;2023-02-02T04:36:30;-3276.70;67.60
78028;DHT22;67235;45.638;11.714;2023-02-02T04:38:56;-3276.60;68.00
78028;DHT22;67235;45.638;11.714;2023-02-02T04:41:22;-3276.60;68.10
78028;DHT22;67235;45.638;11.714;2023-02-02T04:43:48;-3276.70;68.50
78028;DHT22;67235;45.638;11.714;2023-02-02T04:46:15;0.00;67.50
78028;DHT22;67235;45.638;11.714;2023-02-02T04:48:41;-3276.60;67.90
78028;DHT22;67235;45.638;11.714;2023-02-02T04:51:11;-3276.60;68.90
78028;DHT22;67235;45.638;11.714;2023-02-02T04:53:39;-3276.60;68.70
78028;DHT22;67235;45.638;11.714;2023-02-02T04:56:16;-3276.50;69.20
78028;DHT22;67235;45.638;11.714;2023-02-02T04:58:44;-3276.70;69.10
78028;DHT22;67235;45.638;11.714;2023-02-02T05:01:12;-3276.70;68.90
78028;DHT22;67235;45.638;11.714;2023-02-02T05:03:39;-3276.40;68.50
78028;DHT22;67235;45.638;11.714;2023-02-02T05:06:05;-3276.40;69.20
78028;DHT22;67235;45.638;11.714;2023-02-02T05:08:31;-3276.20;68.60
78028;DHT22;67235;45.638;11.714;2023-02-02T05:10:57;-3276.00;68.80
78028;DHT22;67235;45.638;11.714;2023-02-02T05:13:23;-3276.10;69.20
78028;DHT22;67235;45.638;11.714;2023-02-02T05:15:49;-3276.20;69.30
78028;DHT22;67235;45.638;11.714;2023-02-02T05:18:15;-3276.50;69.10
78028;DHT22;67235;45.638;11.714;2023-02-02T05:20:40;-3276.20;68.90
78028;DHT22;67235;45.638;11.714;2023-02-02T05:23:06;-3276.40;70.00
78028;DHT22;67235;45.638;11.714;2023-02-02T05:25:32;-3276.30;69.60
78028;DHT22;67235;45.638;11.714;2023-02-02T05:27:58;-3276.40;68.60
78028;DHT22;67235;45.638;11.714;2023-02-02T05:30:24;-3276.40;69.80
78028;DHT22;67235;45.638;11.714;2023-02-02T05:32:50;-3276.60;70.30
78028;DHT22;67235;45.638;11.714;2023-02-02T05:35:16;-3276.60;69.50
78028;DHT22;67235;45.638;11.714;2023-02-02T05:37:42;-3276.60;70.60
78028;DHT22;67235;45.638;11.714;2023-02-02T05:40:08;-3276.60;71.70
78028;DHT22;67235;45.638;11.714;2023-02-02T05:42:34;-3276.60;70.60
78028;DHT22;67235;45.638;11.714;2023-02-02T05:45:01;-3276.40;70.00
78028;DHT22;67235;45.638;11.714;2023-02-02T05:47:27;-3276.40;70.10
78028;DHT22;67235;45.638;11.714;2023-02-02T05:49:52;-3276.30;70.30
78028;DHT22;67235;45.638;11.714;2023-02-02T05:52:20;-3276.10;69.90
78028;DHT22;67235;45.638;11.714;2023-02-02T05:54:47;-3275.90;70.60
78028;DHT22;67235;45.638;11.714;2023-02-02T05:57:13;-3276.20;70.10
78028;DHT22;67235;45.638;11.714;2023-02-02T05:59:39;-3276.00;70.40
78028;DHT22;67235;45.638;11.714;2023-02-02T06:02:05;-3275.90;69.50
78028;DHT22;67235;45.638;11.714;2023-02-02T06:04:34;-3275.80;70.00
78028;DHT22;67235;45.638;11.714;2023-02-02T06:07:01;-3275.90;71.10
78028;DHT22;67235;45.638;11.714;2023-02-02T06:09:27;-3275.90;71.50
78028;DHT22;67235;45.638;11.714;2023-02-02T06:11:53;-3275.90;70.90
78028;DHT22;67235;45.638;11.714;2023-02-02T06:14:19;-3275.80;70.80
78028;DHT22;67235;45.638;11.714;2023-02-02T06:16:45;-3275.80;70.20
78028;DHT22;67235;45.638;11.714;2023-02-02T06:19:11;-3275.70;69.90
78028;DHT22;67235;45.638;11.714;2023-02-02T06:21:38;-3275.80;70.00
78028;DHT22;67235;45.638;11.714;2023-02-02T06:24:04;-3275.90;70.30
78028;DHT22;67235;45.638;11.714;2023-02-02T06:26:30;-3275.80;70.00
78028;DHT22;67235;45.638;11.714;2023-02-02T06:28:59;-3275.90;70.10
78028;DHT22;67235;45.638;11.714;2023-02-02T06:31:25;-3275.80;70.00
78028;DHT22;67235;45.638;11.714;2023-02-02T06:33:53;-3276.00;69.50
78028;DHT22;67235;45.638;11.714;2023-02-02T06:36:20;-3275.90;70.10
78028;DHT22;67235;45.638;11.714;2023-02-02T06:38:50;-3275.90;70.40
78028;DHT22;67235;45.638;11.714;2023-02-02T06:41:19;-3275.80;71.00
78028;DHT22;67235;45.638;11.714;2023-02-02T06:43:47;-3275.90;70.30
78028;DHT22;67235;45.638;11.714;2023-02-02T06:46:14;-3276.30;69.90
78028;DHT22;67235;45.638;11.714;2023-02-02T06:48:40;-3276.10;69.50
78028;DHT22;67235;45.638;11.714;2023-02-02T06:51:06;-3276.30;68.90
78028;DHT22;67235;45.638;11.714;2023-02-02T06:53:32;-3276.50;69.20
78028;DHT22;67235;45.638;11.714;2023-02-02T06:56:00;-3276.50;68.60
78028;DHT22;67235;45.638;11.714;2023-02-02T06:58:26;-3276.50;68.40
78028;DHT22;67235;45.638;11.714;2023-02-02T07:00:53;0.00;68.40
78028;DHT22;67235;45.638;11.714;2023-02-02T07:03:20;0.30;68.30
78028;DHT22;67235;45.638;11.714;2023-02-02T07:05:47;0.50;68.10
78028;DHT22;67235;45.638;11.714;2023-02-02T07:08:13;0.50;67.50
78028;DHT22;67235;45.638;11.714;2023-02-02T07:10:40;0.60;68.10
78028;DHT22;67235;45.638;11.714;2023-02-02T07:13:06;0.70;66.10
78028;DHT22;67235;45.638;11.714;2023-02-02T07:15:37;0.60;68.20
78028;DHT22;67235;45.638;11.714;2023-02-02T07:18:04;0.70;68.70
78028;DHT22;67235;45.638;11.714;2023-02-02T07:20:30;1.00;68.50
78028;DHT22;67235;45.638;11.714;2023-02-02T07:22:56;0.80;67.70
78028;DHT22;67235;45.638;11.714;2023-02-02T07:25:22;0.80;68.60
78028;DHT22;67235;45.638;11.714;2023-02-02T07:27:52;1.30;68.50
78028;DHT22;67235;45.638;11.714;2023-02-02T07:30:18;1.80;67.80
78028;DHT22;67235;45.638;11.714;2023-02-02T07:32:47;2.30;67.50
78028;DHT22;67235;45.638;11.714;2023-02-02T07:35:15;2.90;66.90
78028;DHT22;67235;45.638;11.714;2023-02-02T07:37:41;3.70;65.70
78028;DHT22;67235;45.638;11.714;2023-02-02T07:40:10;4.10;65.00
78028;DHT22;67235;45.638;11.714;2023-02-02T07:42:38;4.60;65.00
78028;DHT22;67235;45.638;11.714;2023-02-02T07:45:05;5.40;64.30
78028;DHT22;67235;45.638;11.714;2023-02-02T07:47:31;5.90;63.60
78028;DHT22;67235;45.638;11.714;2023-02-02T07:49:58;7.20;63.10
78028;DHT22;67235;45.638;11.714;2023-02-02T07:52:23;8.00;62.30
78028;DHT22;67235;45.638;11.714;2023-02-02T07:54:49;8.20;62.20
78028;DHT22;67235;45.638;11.714;2023-02-02T07:57:18;9.00;45.20
78028;DHT22;67235;45.638;11.714;2023-02-02T07:59:44;8.90;61.30
78028;DHT22;67235;45.638;11.714;2023-02-02T08:02:10;9.00;61.40
78028;DHT22;67235;45.638;11.714;2023-02-02T08:04:36;9.20;61.30
78028;DHT22;67235;45.638;11.714;2023-02-02T08:07:01;9.50;45.20
78028;DHT22;67235;45.638;11.714;2023-02-02T08:09:27;9.60;45.10
78028;DHT22;67235;45.638;11.714;2023-02-02T08:11:53;10.40;44.50
78028;DHT22;67235;45.638;11.714;2023-02-02T08:14:19;11.10;41.40
78028;DHT22;67235;45.638;11.714;2023-02-02T08:16:45;10.90;41.80
78028;DHT22;67235;45.638;11.714;2023-02-02T08:19:11;11.10;41.70
78028;DHT22;67235;45.638;11.714;2023-02-02T08:21:37;12.30;40.80
78028;DHT22;67235;45.638;11.714;2023-02-02T08:24:03;12.60;40.10
78028;DHT22;67235;45.638;11.714;2023-02-02T08:26:30;12.60;40.80
78028;DHT22;67235;45.638;11.714;2023-02-02T08:28:58;12.20;44.40
78028;DHT22;67235;45.638;11.714;2023-02-02T08:31:29;12.90;39.20
78028;DHT22;67235;45.638;11.714;2023-02-02T08:33:55;13.80;37.70
78028;DHT22;67235;45.638;11.714;2023-02-02T08:36:26;14.30;36.70
78028;DHT22;67235;45.638;11.714;2023-02-02T08:39:00;13.80;37.20
78028;DHT22;67235;45.638;11.714;2023-02-02T08:41:31;13.70;37.90
78028;DHT22;67235;45.638;11.714;2023-02-02T08:43:57;15.00;34.40
78028;DHT22;67235;45.638;11.714;2023-02-02T08:46:24;14.80;35.50
78028;DHT22;67235;45.638;11.714;2023-02-02T08:48:50;15.00;35.60
78028;DHT22;67235;45.638;11.714;2023-02-02T08:51:20;15.40;34.70
78028;DHT22;67235;45.638;11.714;2023-02-02T08:53:48;16.50;31.90
78028;DHT22;67235;45.638;11.714;2023-02-02T08:56:20;16.60;31.70
78028;DHT22;67235;45.638;11.714;2023-02-02T08:58:50;15.80;33.90
78028;DHT22;67235;45.638;11.714;2023-02-02T09:01:25;15.20;36.70
78028;DHT22;67235;45.638;11.714;2023-02-02T09:04:02;15.50;35.10
78028;DHT22;67235;45.638;11.714;2023-02-02T09:06:39;15.90;34.10
78028;DHT22;67235;45.638;11.714;2023-02-02T09:09:07;16.90;31.70
78028;DHT22;67235;45.638;11.714;2023-02-02T09:11:34;16.90;31.80
78028;DHT22;67235;45.638;11.714;2023-02-02T09:14:01;17.70;30.70
78028;DHT22;67235;45.638;11.714;2023-02-02T09:16:28;16.80;32.00
78028;DHT22;67235;45.638;11.714;2023-02-02T09:18:55;16.80;32.50
78028;DHT22;67235;45.638;11.714;2023-02-02T09:21:21;17.20;32.50
78028;DHT22;67235;45.638;11.714;2023-02-02T09:23:48;17.20;31.50
78028;DHT22;67235;45.638;11.714;2023-02-02T09:26:26;17.60;30.90
78028;DHT22;67235;45.638;11.714;2023-02-02T09:28:59;17.20;33.40
78028;DHT22;67235;45.638;11.714;2023-02-02T09:31:28;16.60;33.40
78028;DHT22;67235;45.638;11.714;2023-02-02T09:33:54;18.30;30.10
78028;DHT22;67235;45.638;11.714;2023-02-02T09:36:21;18.40;29.50
78028;DHT22;67235;45.638;11.714;2023-02-02T09:38:49;18.20;28.90
78028;DHT22;67235;45.638;11.714;2023-02-02T09:47:14;18.40;28.70
78028;DHT22;67235;45.638;11.714;2023-02-02T09:49:59;19.10;27.20
78028;DHT22;67235;45.638;11.714;2023-02-02T09:52:42;19.40;27.20
78028;DHT22;67235;45.638;11.714;2023-02-02T09:55:32;19.60;26.80
78028;DHT22;67235;45.638;11.714;2023-02-02T10:04:01;20.00;27.60
78028;DHT22;67235;45.638;11.714;2023-02-02T10:06:40;20.00;26.80
78028;DHT22;67235;45.638;11.714;2023-02-02T10:17:47;20.20;26.40
78028;DHT22;67235;45.638;11.714;2023-02-02T10:22:46;17.40;31.30
78028;DHT22;67235;45.638;11.714;2023-02-02T10:25:15;18.50;29.70
78028;DHT22;67235;45.638;11.714;2023-02-02T10:27:49;19.40;28.30
78028;DHT22;67235;45.638;11.714;2023-02-02T10:30:24;18.40;29.00
78028;DHT22;67235;45.638;11.714;2023-02-02T10:33:04;17.40;32.10
78028;DHT22;67235;45.638;11.714;2023-02-02T10:35:51;18.70;28.30
78028;DHT22;67235;45.638;11.714;2023-02-02T10:38:52;18.90;28.50
78028;DHT22;67235;45.638;11.714;2023-02-02T10:41:50;19.40;26.70
78028;DHT22;67235;45.638;11.714;2023-02-02T10:46:59;17.00;33.40
78028;DHT22;67235;45.638;11.714;2023-02-02T10:49:35;17.20;32.90
78028;DHT22;67235;45.638;11.714;2023-02-02T10:52:18;16.30;36.00
78028;DHT22;67235;45.638;11.714;2023-02-02T10:55:17;17.10;34.40
78028;DHT22;67235;45.638;11.714;2023-02-02T10:58:07;17.70;31.70
78028;DHT22;67235;45.638;11.714;2023-02-02T11:00:40;17.90;33.20
78028;DHT22;67235;45.638;11.714;2023-02-02T11:03:09;17.10;33.70
78028;DHT22;67235;45.638;11.714;2023-02-02T11:05:36;17.10;33.50
78028;DHT22;67235;45.638;11.714;2023-02-02T11:08:47;18.10;32.30
78028;DHT22;67235;45.638;11.714;2023-02-02T11:11:37;19.10;30.20
78028;DHT22;67235;45.638;11.714;2023-02-02T11:16:34;19.20;29.20
78028;DHT22;67235;45.638;11.714;2023-02-02T11:19:00;19.50;27.80
78028;DHT22;67235;45.638;11.714;2023-02-02T11:21:32;18.90;30.50
78028;DHT22;67235;45.638;11.714;2023-02-02T11:24:05;19.40;29.10
78028;DHT22;67235;45.638;11.714;2023-02-02T11:26:58;20.40;25.90
78028;DHT22;67235;45.638;11.714;2023-02-02T11:35:13;19.10;29.00
78028;DHT22;67235;45.638;11.714;2023-02-02T11:38:09;18.90;29.60
78028;DHT22;67235;45.638;11.714;2023-02-02T11:40:54;19.60;27.80
78028;DHT22;67235;45.638;11.714;2023-02-02T11:49:13;19.90;27.60
78028;DHT22;67235;45.638;11.714;2023-02-02T11:52:04;19.40;29.30
78028;DHT22;67235;45.638;11.714;2023-02-02T11:54:34;19.00;29.90
78028;DHT22;67235;45.638;11.714;2023-02-02T11:57:24;20.00;27.80
78028;DHT22;67235;45.638;11.714;2023-02-02T12:00:24;19.90;29.20
78028;DHT22;67235;45.638;11.714;2023-02-02T12:02:47;19.40;28.70
78028;DHT22;67235;45.638;11.714;2023-02-02T12:08:08;19.50;28.70
78028;DHT22;67235;45.638;11.714;2023-02-02T12:13:48;19.20;29.40
78028;DHT22;67235;45.638;11.714;2023-02-02T12:16:38;18.90;30.20
78028;DHT22;67235;45.638;11.714;2023-02-02T12:22:05;20.20;26.00
78028;DHT22;67235;45.638;11.714;2023-02-02T12:33:42;18.40;31.10
78028;DHT22;67235;45.638;11.714;2023-02-02T12:36:18;17.30;32.90
78028;DHT22;67235;45.638;11.714;2023-02-02T12:39:26;17.00;33.60
78028;DHT22;67235;45.638;11.714;2023-02-02T12:47:24;18.40;29.90
78028;DHT22;67235;45.638;11.714;2023-02-02T12:53:02;18.00;32.00
78028;DHT22;67235;45.638;11.714;2023-02-02T13:00:52;16.40;36.00
78028;DHT22;67235;45.638;11.714;2023-02-02T13:11:40;16.10;36.50
78028;DHT22;67235;45.638;11.714;2023-02-02T13:14:14;16.30;36.00
78028;DHT22;67235;45.638;11.714;2023-02-02T13:16:50;16.30;35.80
78028;DHT22;67235;45.638;11.714;2023-02-02T13:21:57;17.20;35.20
78028;DHT22;67235;45.638;11.714;2023-02-02T13:24:28;17.00;37.10
78028;DHT22;67235;45.638;11.714;2023-02-02T13:26:57;16.30;37.50
78028;DHT22;67235;45.638;11.714;2023-02-02T13:32:22;15.40;40.40
78028;DHT22;67235;45.638;11.714;2023-02-02T13:34:57;15.20;41.00
78028;DHT22;67235;45.638;11.714;2023-02-02T13:37:39;15.40;41.10
78028;DHT22;67235;45.638;11.714;2023-02-02T13:40:33;15.10;41.00
78028;DHT22;67235;45.638;11.714;2023-02-02T13:43:33;14.70;40.70
78028;DHT22;67235;45.638;11.714;2023-02-02T13:46:40;14.50;42.50
78028;DHT22;67235;45.638;11.714;2023-02-02T13:49:19;14.20;43.20
78028;DHT22;67235;45.638;11.714;2023-02-02T13:52:05;14.10;43.00
78028;DHT22;67235;45.638;11.714;2023-02-02T13:58:06;14.10;42.60
78028;DHT22;67235;45.638;11.714;2023-02-02T14:00:41;14.10;44.70
78028;DHT22;67235;45.638;11.714;2023-02-02T14:03:27;13.90;42.90
78028;DHT22;67235;45.638;11.714;2023-02-02T14:06:07;13.90;43.90
78028;DHT22;67235;45.638;11.714;2023-02-02T14:08:34;13.90;44.40
78028;DHT22;67235;45.638;11.714;2023-02-02T14:11:03;13.60;45.60
78028;DHT22;67235;45.638;11.714;2023-02-02T14:13:49;13.50;46.60
78028;DHT22;67235;45.638;11.714;2023-02-02T14:19:02;13.40;47.40
78028;DHT22;67235;45.638;11.714;2023-02-02T14:31:59;13.40;46.90
78028;DHT22;67235;45.638;11.714;2023-02-02T14:34:26;13.60;46.00
78028;DHT22;67235;45.638;11.714;2023-02-02T14:45:43;13.50;46.50
78028;DHT22;67235;45.638;11.714;2023-02-02T14:48:16;13.40;46.20
78028;DHT22;67235;45.638;11.714;2023-02-02T14:50:50;13.10;48.50
78028;DHT22;67235;45.638;11.714;2023-02-02T14:53:30;13.20;46.90
78028;DHT22;67235;45.638;11.714;2023-02-02T14:56:05;13.00;47.20
78028;DHT22;67235;45.638;11.714;2023-02-02T14:58:56;13.00;48.10
78028;DHT22;67235;45.638;11.714;2023-02-02T15:01:28;13.00;46.50
78028;DHT22;67235;45.638;11.714;2023-02-02T15:06:49;12.90;47.20
78028;DHT22;67235;45.638;11.714;2023-02-02T15:20:15;12.30;62.50
78028;DHT22;67235;45.638;11.714;2023-02-02T15:31:28;11.30;63.00
78028;DHT22;67235;45.638;11.714;2023-02-02T15:36:37;11.20;63.00
78028;DHT22;67235;45.638;11.714;2023-02-02T15:39:25;11.20;63.00
78028;DHT22;67235;45.638;11.714;2023-02-02T15:41:54;11.10;63.20
78028;DHT22;67235;45.638;11.714;2023-02-02T15:44:40;10.90;63.40
78028;DHT22;67235;45.638;11.714;2023-02-02T15:47:12;10.90;63.50
78028;DHT22;67235;45.638;11.714;2023-02-02T15:49:39;10.80;63.60
78028;DHT22;67235;45.638;11.714;2023-02-02T15:52:17;10.70;63.80
78028;DHT22;67235;45.638;11.714;2023-02-02T15:54:51;10.70;63.80
78028;DHT22;67235;45.638;11.714;2023-02-02T15:57:35;10.60;63.70
78028;DHT22;67235;45.638;11.714;2023-02-02T16:00:34;10.50;64.00
78028;DHT22;67235;45.638;11.714;2023-02-02T16:03:12;10.20;64.00
78028;DHT22;67235;45.638;11.714;2023-02-02T16:05:52;10.00;64.40
78028;DHT22;67235;45.638;11.714;2023-02-02T16:08:30;10.00;64.40
78028;DHT22;67235;45.638;11.714;2023-02-02T16:11:15;9.80;64.50
78028;DHT22;67235;45.638;11.714;2023-02-02T16:13:45;9.70;64.60
78028;DHT22;67235;45.638;11.714;2023-02-02T16:16:22;9.60;64.80
78028;DHT22;67235;45.638;11.714;2023-02-02T16:19:13;9.50;65.00
78028;DHT22;67235;45.638;11.714;2023-02-02T16:21:47;9.60;64.90
78028;DHT22;67235;45.638;11.714;2023-02-02T16:24:26;9.50;64.90
78028;DHT22;67235;45.638;11.714;2023-02-02T16:26:56;9.30;65.00
78028;DHT22;67235;45.638;11.714;2023-02-02T16:29:23;9.20;64.90
78028;DHT22;67235;45.638;11.714;2023-02-02T16:31:50;9.00;64.80
78028;DHT22;67235;45.638;11.714;2023-02-02T16:34:17;8.90;65.00
78028;DHT22;67235;45.638;11.714;2023-02-02T16:37:03;8.80;65.40
78028;DHT22;67235;45.638;11.714;2023-02-02T16:39:29;8.60;65.20
78028;DHT22;67235;45.638;11.714;2023-02-02T16:42:27;8.50;65.30
78028;DHT22;67235;45.638;11.714;2023-02-02T16:44:53;8.60;65.10
78028;DHT22;67235;45.638;11.714;2023-02-02T16:49:53;8.20;65.90
78028;DHT22;67235;45.638;11.714;2023-02-02T16:52:20;8.00;66.50
78028;DHT22;67235;45.638;11.714;2023-02-02T16:55:08;8.00;66.70
78028;DHT22;67235;45.638;11.714;2023-02-02T16:57:34;7.90;66.80
78028;DHT22;67235;45.638;11.714;2023-02-02T17:00:04;7.90;66.80
78028;DHT22;67235;45.638;11.714;2023-02-02T17:02:31;7.80;66.90
78028;DHT22;67235;45.638;11.714;2023-02-02T17:05:15;7.70;67.50
78028;DHT22;67235;45.638;11.714;2023-02-02T17:07:50;7.60;67.40
78028;DHT22;67235;45.638;11.714;2023-02-02T17:10:27;7.50;67.20
78028;DHT22;67235;45.638;11.714;2023-02-02T17:12:57;7.40;67.40
78028;DHT22;67235;45.638;11.714;2023-02-02T17:15:32;7.30;67.80
78028;DHT22;67235;45.638;11.714;2023-02-02T17:17:59;7.30;67.60
78028;DHT22;67235;45.638;11.714;2023-02-02T17:20:25;7.20;67.00
78028;DHT22;67235;45.638;11.714;2023-02-02T17:23:00;7.10;67.00
78028;DHT22;67235;45.638;11.714;2023-02-02T17:25:29;7.00;67.20
78028;DHT22;67235;45.638;11.714;2023-02-02T17:27:58;7.00;68.00
78028;DHT22;67235;45.638;11.714;2023-02-02T17:30:25;6.90;68.10
78028;DHT22;67235;45.638;11.714;2023-02-02T17:32:52;7.00;66.80
78028;DHT22;67235;45.638;11.714;2023-02-02T17:35:23;6.40;65.30
78028;DHT22;67235;45.638;11.714;2023-02-02T17:37:49;6.10;67.60
78028;DHT22;67235;45.638;11.714;2023-02-02T17:40:22;6.10;67.70
78028;DHT22;67235;45.638;11.714;2023-02-02T17:42:50;6.20;68.70
78028;DHT22;67235;45.638;11.714;2023-02-02T17:45:20;6.20;68.60
78028;DHT22;67235;45.638;11.714;2023-02-02T17:47:47;6.20;68.10
78028;DHT22;67235;45.638;11.714;2023-02-02T17:50:13;6.10;67.50
78028;DHT22;67235;45.638;11.714;2023-02-02T17:52:39;5.90;68.00
78028;DHT22;67235;45.638;11.714;2023-02-02T17:55:30;5.70;68.80
78028;DHT22;67235;45.638;11.714;2023-02-02T17:57:56;5.80;69.20
78028;DHT22;67235;45.638;11.714;2023-02-02T18:00:25;5.80;70.00
78028;DHT22;67235;45.638;11.714;2023-02-02T18:02:54;5.90;70.20
78028;DHT22;67235;45.638;11.714;2023-02-02T18:05:22;5.80;70.00
78028;DHT22;67235;45.638;11.714;2023-02-02T18:07:48;5.80;68.50
78028;DHT22;67235;45.638;11.714;2023-02-02T18:10:15;5.70;68.50
78028;DHT22;67235;45.638;11.714;2023-02-02T18:12:41;5.50;68.70
78028;DHT22;67235;45.638;11.714;2023-02-02T18:15:10;5.60;68.50
78028;DHT22;67235;45.638;11.714;2023-02-02T18:17:36;5.50;68.30
78028;DHT22;67235;45.638;11.714;2023-02-02T18:20:03;5.30;68.80
78028;DHT22;67235;45.638;11.714;2023-02-02T18:22:29;5.40;68.70
78028;DHT22;67235;45.638;11.714;2023-02-02T18:24:55;5.30;68.00
78028;DHT22;67235;45.638;11.714;2023-02-02T18:27:23;5.10;67.90
78028;DHT22;67235;45.638;11.714;2023-02-02T18:29:49;5.20;68.40